Time;durP1;ratioP1;P1;durP2;ratioP2;P2;SDS_P1;SDS_P2;PMS_P1;PMS_P2;Temp;Humidity;BMP_temperature;BMP_pressure;BME280_temperature;BME280_humidity;BME280_pressure;Samples;Min_cycle;Max_cycle;Signal;HPM_P1;HPM_P2
2022/09/20 00:02:14;;;;;;;0.40;0.40;;;;;;;10.61;56.55;100509.78;5065366;28;20032;-73
2022/09/20 00:04:39;;;;;;;0.40;0.40;;;;;;;10.59;56.75;100507.19;5065363;28;20021;-72
2022/09/20 00:07:04;;;;;;;0.38;0.38;;;;;;;10.57;57.01;100511.56;5065568;28;20025;-72
2022/09/20 00:09:30;;;;;;;0.40;0.40;;;;;;;10.57;56.73;100510.69;5065208;28;20127;-72
2022/09/20 00:11:55;;;;;;;0.40;0.40;;;;;;;10.59;57.14;100524.53;5065234;28;20036;-72
2022/09/20 00:14:21;;;;;;;0.40;0.40;;;;;;;10.58;57.14;100517.59;5065218;28;20036;-72
2022/09/20 00:16:46;;;;;;;0.40;0.40;;;;;;;10.57;57.37;100514.16;5065083;28;20037;-72
2022/09/20 00:19:17;;;;;;;0.30;0.30;;;;;;;10.59;57.68;100521.94;5065271;28;20036;-71
2022/09/20 00:21:42;;;;;;;0.50;0.50;;;;;;;10.61;57.59;100530.53;5064974;28;20035;-71
2022/09/20 00:24:09;;;;;;;0.40;0.40;;;;;;;10.64;57.50;100535.72;5065344;28;20332;-71
2022/09/20 00:26:35;;;;;;;0.40;0.40;;;;;;;10.66;57.55;100537.44;5065039;28;20385;-73
2022/09/20 00:29:00;;;;;;;0.30;0.30;;;;;;;10.69;57.52;100538.31;5065191;28;20021;-71
2022/09/20 00:31:26;;;;;;;0.40;0.40;;;;;;;10.63;57.45;100528.81;5066010;28;20047;-71
2022/09/20 00:36:40;;;;;;;0.40;0.40;;;;;;;10.60;57.94;100540.09;5069206;28;20102;-71
2022/09/20 00:39:06;;;;;;;0.30;0.30;;;;;;;10.50;58.33;100538.41;5069169;28;20396;-71
2022/09/20 00:41:32;;;;;;;0.40;0.40;;;;;;;10.50;58.10;100543.59;5069220;28;20045;-71
2022/09/20 00:43:59;;;;;;;0.40;0.40;;;;;;;10.46;58.27;100540.19;5069294;28;20028;-72
2022/09/20 00:46:31;;;;;;;0.40;0.40;;;;;;;10.44;58.22;100548.78;5069533;28;20055;-72
2022/09/20 00:49:11;;;;;;;;;;;;;;;10.39;58.27;100544.50;5069401;28;20028;-71
2022/09/20 00:51:40;;;;;;;0.40;0.40;;;;;;;10.28;58.01;100547.16;5069315;28;20008;-72
2022/09/20 00:54:09;;;;;;;0.40;0.40;;;;;;;10.24;58.23;100544.59;5067287;28;20017;-72
2022/09/20 00:56:39;;;;;;;0.40;0.40;;;;;;;10.20;58.21;100551.53;5069019;28;20033;-70
2022/09/20 00:59:29;;;;;;;0.40;0.40;;;;;;;10.13;58.03;100542.03;5068856;28;20505;-70
2022/09/20 01:02:06;;;;;;;0.40;0.40;;;;;;;10.09;58.11;100548.97;5068948;28;20037;-72
2022/09/20 01:04:33;;;;;;;0.50;0.50;;;;;;;10.12;58.35;100554.16;5068594;28;20033;-72
2022/09/20 01:07:01;;;;;;;0.40;0.40;;;;;;;10.10;58.44;100549.81;5068576;28;20029;-71
2022/09/20 01:09:27;;;;;;;0.40;0.40;;;;;;;10.08;58.79;100554.16;5068748;28;20033;-71
2022/09/20 01:11:56;;;;;;;0.40;0.40;;;;;;;10.12;58.96;100558.47;5068300;28;20025;-70
2022/09/20 01:14:23;;;;;;;0.40;0.40;;;;;;;10.11;58.98;100562.78;5068496;28;20080;-71
2022/09/20 01:16:52;;;;;;;0.60;0.60;;;;;;;10.09;59.09;100561.94;5068774;28;20024;-71
2022/09/20 01:19:51;;;;;;;0.40;0.40;;;;;;;9.99;58.84;100555.06;5068498;28;20025;-70
2022/09/20 01:22:26;;;;;;;0.40;0.40;;;;;;;10.01;58.89;100559.38;5068543;28;20074;-70
2022/09/20 01:25:08;;;;;;;0.40;0.40;;;;;;;9.96;59.25;100555.06;5067181;28;20025;-70
2022/09/20 01:27:40;;;;;;;0.70;0.70;;;;;;;9.98;59.38;100574.09;5068473;28;20025;-70
2022/09/20 01:30:11;;;;;;;0.40;0.40;;;;;;;9.94;59.41;100569.75;5068148;28;20056;-71
2022/09/20 01:32:51;;;;;;;0.40;0.40;;;;;;;9.88;59.40;100566.34;5068302;28;20469;-70
2022/09/20 01:35:20;;;;;;;0.40;0.40;;;;;;;9.83;59.34;100568.06;5066809;28;20036;-70
2022/09/20 01:38:43;;;;;;;0.40;0.40;;;;;;;9.81;59.73;100572.38;5067689;28;20041;-70
2022/09/20 01:41:15;;;;;;;0.40;0.40;;;;;;;9.76;59.69;100575.00;5006024;28;20034;-70
2022/09/20 01:43:54;;;;;;;0.40;0.40;;;;;;;9.72;59.89;100577.59;5005863;28;20514;-70
2022/09/20 01:46:30;;;;;;;0.95;0.95;;;;;;;9.70;60.09;100587.09;5006388;28;20057;-70
2022/09/20 01:49:37;;;;;;;0.80;0.80;;;;;;;9.65;60.31;100585.38;5006146;28;20054;-70
2022/09/20 01:52:02;;;;;;;0.40;0.40;;;;;;;9.61;60.08;100586.28;5004702;28;20043;-71
2022/09/20 01:55:02;;;;;;;0.40;0.40;;;;;;;9.60;60.55;100587.13;5005601;28;20038;-70
2022/09/20 01:57:33;;;;;;;0.40;0.40;;;;;;;9.57;60.64;100587.13;5006004;28;20491;-70
2022/09/20 02:00:10;;;;;;;0.40;0.40;;;;;;;9.53;60.68;100591.47;5005918;28;20046;-71
2022/09/20 02:03:00;;;;;;;0.40;0.40;;;;;;;9.51;60.84;100593.19;5005938;28;20026;-71
2022/09/20 02:05:33;;;;;;;0.40;0.40;;;;;;;9.49;60.80;100601.84;5005512;28;20042;-70
2022/09/20 02:08:01;;;;;;;0.40;0.40;;;;;;;9.46;60.88;100594.91;5006143;28;20034;-71
2022/09/20 02:11:11;;;;;;;0.40;0.40;;;;;;;9.42;61.09;100604.41;5008007;28;20022;-71
2022/09/20 02:13:39;;;;;;;0.40;0.40;;;;;;;9.38;61.06;100602.69;5005676;28;20744;-69
2022/09/20 02:16:25;;;;;;;0.40;0.40;;;;;;;9.35;61.24;100612.19;5005838;28;20042;-71
2022/09/20 02:19:27;;;;;;;0.40;0.40;;;;;;;9.31;61.61;100606.16;4998858;28;20038;-70
2022/09/20 02:22:24;;;;;;;0.40;0.40;;;;;;;9.29;61.45;100608.75;5005710;28;20058;-71
2022/09/20 02:24:57;;;;;;;0.50;0.50;;;;;;;9.26;61.49;100613.06;5006108;28;20034;-70
2022/09/20 02:27:59;;;;;;;0.40;0.40;;;;;;;9.24;61.38;100617.38;5006346;28;20046;-71
2022/09/20 02:30:42;;;;;;;0.50;0.50;;;;;;;9.14;61.46;100612.19;5005677;28;20030;-70
2022/09/20 02:33:20;;;;;;;0.40;0.40;;;;;;;9.17;61.51;100624.28;5005541;28;20197;-71
2022/09/20 02:36:04;;;;;;;0.40;0.40;;;;;;;9.12;61.96;100621.69;5005599;28;20052;-70
2022/09/20 02:38:44;;;;;;;0.40;0.40;;;;;;;9.05;62.65;100618.25;5005389;28;20062;-71
2022/09/20 02:41:36;;;;;;;0.40;0.40;;;;;;;9.07;62.31;100618.25;5005172;28;20042;-70
2022/09/20 02:44:21;;;;;;;0.40;0.40;;;;;;;9.04;62.26;100620.81;4999350;28;20045;-70
2022/09/20 02:47:16;;;;;;;0.40;0.40;;;;;;;8.99;62.18;100610.47;5002902;28;20039;-71
2022/09/20 02:50:03;;;;;;;0.40;0.40;;;;;;;9.01;62.13;100633.78;5066722;28;20024;-71
2022/09/20 02:53:06;;;;;;;0.40;0.40;;;;;;;8.97;62.18;100635.50;5066765;28;20040;-70
2022/09/20 02:55:47;;;;;;;0.40;0.40;;;;;;;8.91;62.22;100631.13;5065959;28;20028;-69
2022/09/20 02:58:19;;;;;;;0.40;0.40;;;;;;;8.93;62.40;100638.91;5066624;28;20025;-69
2022/09/20 03:00:59;;;;;;;0.50;0.50;;;;;;;8.91;62.11;100645.84;5066748;28;20310;-71
2022/09/20 03:04:08;;;;;;;0.40;0.40;;;;;;;8.89;62.09;100648.41;5065327;28;20266;-71
2022/09/20 03:06:55;;;;;;;0.40;0.40;;;;;;;8.87;62.18;100644.06;5065185;28;20025;-72
2022/09/20 03:10:00;;;;;;;0.40;0.40;;;;;;;8.83;62.20;100644.94;5066811;28;20044;-71
2022/09/20 03:12:53;;;;;;;0.40;0.40;;;;;;;8.82;62.09;100645.81;5053794;28;20040;-71
2022/09/20 03:15:46;;;;;;;0.60;0.60;;;;;;;8.78;61.96;100647.53;5066484;28;20024;-72
2022/09/20 03:18:15;;;;;;;;;;;;;;;8.77;61.81;100657.00;5035493;28;20043;-70
2022/09/20 03:21:00;;;;;;;0.40;0.40;;;;;;;8.72;61.92;100652.69;5066323;28;20356;-71
2022/09/20 03:24:00;;;;;;;0.40;0.40;;;;;;;8.70;62.17;100664.75;5064853;28;20088;-71
2022/09/20 03:26:44;;;;;;;0.40;0.40;;;;;;;8.67;61.90;100656.09;5065762;28;20025;-71
2022/09/20 03:29:32;;;;;;;0.40;0.40;;;;;;;8.67;61.93;100661.28;5064953;28;20027;-71
2022/09/20 03:32:14;;;;;;;0.47;0.47;;;;;;;8.66;62.02;100662.16;5057475;28;20036;-72
2022/09/20 03:34:58;;;;;;;0.47;0.47;;;;;;;8.62;61.98;100668.19;5066076;28;20059;-73
2022/09/20 03:37:43;;;;;;;0.40;0.40;;;;;;;8.56;61.90;100665.56;5065866;28;20053;-73
2022/09/20 03:40:35;;;;;;;0.40;0.40;;;;;;;8.58;61.79;100674.19;5064590;28;20032;-72
2022/09/20 03:43:49;;;;;;;0.40;0.40;;;;;;;8.53;62.16;100676.72;5065819;28;20099;-72
2022/09/20 03:46:17;;;;;;;0.40;0.40;;;;;;;8.54;61.91;100675.91;5004058;28;20449;-73
2022/09/20 03:49:20;;;;;;;0.50;0.50;;;;;;;8.54;61.82;100687.94;5003867;28;20034;-72
2022/09/20 03:52:22;;;;;;;0.45;0.45;;;;;;;8.55;61.80;100679.34;5004193;28;20034;-72
2022/09/20 03:54:50;;;;;;;0.40;0.40;;;;;;;8.52;61.98;100687.94;5004177;28;20281;-72
2022/09/20 03:57:34;;;;;;;0.50;0.50;;;;;;;8.49;62.13;100687.06;5003991;28;20040;-73
2022/09/20 04:00:24;;;;;;;0.50;0.50;;;;;;;8.49;61.93;100693.09;5003768;28;20057;-72
2022/09/20 04:02:52;;;;;;;0.40;0.40;;;;;;;8.49;61.97;100693.09;5003956;28;20098;-72
2022/09/20 04:05:40;;;;;;;0.40;0.40;;;;;;;8.46;62.30;100699.97;5003816;28;20026;-72
2022/09/20 04:08:09;;;;;;;0.47;0.47;;;;;;;8.41;62.38;100706.00;5003890;28;20117;-73
2022/09/20 04:10:42;;;;;;;0.40;0.40;;;;;;;8.40;62.22;100703.41;5003582;28;20030;-71
2022/09/20 04:13:30;;;;;;;0.40;0.40;;;;;;;8.38;62.04;100710.28;5003424;28;20030;-74
2022/09/20 04:16:16;;;;;;;0.40;0.40;;;;;;;8.38;62.06;100713.75;5003594;28;20054;-72
2022/09/20 04:18:50;;;;;;;0.40;0.40;;;;;;;8.33;62.28;100712.84;5003950;28;20050;-73
2022/09/20 04:21:22;;;;;;;0.40;0.40;;;;;;;8.28;62.23;100715.41;5019122;28;20041;-71
2022/09/20 04:24:03;;;;;;;0.40;0.40;;;;;;;8.31;62.42;100720.59;5065629;28;20047;-69
2022/09/20 04:26:31;;;;;;;0.40;0.40;;;;;;;8.32;62.80;100724.06;5065016;28;20025;-68
2022/09/20 04:29:28;;;;;;;0.40;0.40;;;;;;;8.27;62.71;100723.16;5064946;28;20059;-67
2022/09/20 04:32:16;;;;;;;0.40;0.40;;;;;;;8.25;62.40;100727.44;5065154;28;20088;-67
2022/09/20 04:37:37;;;;;;;0.40;0.40;;;;;;;8.20;62.16;100735.19;5064872;28;20111;-67
2022/09/20 04:40:14;;;;;;;0.40;0.40;;;;;;;8.15;62.31;100734.28;5065064;28;20116;-69
2022/09/20 04:43:01;;;;;;;0.40;0.40;;;;;;;8.12;62.43;100734.25;5065078;28;20021;-68
2022/09/20 04:45:51;;;;;;;0.40;0.40;;;;;;;8.08;62.47;100738.56;5064982;28;20029;-69
2022/09/20 04:48:42;;;;;;;0.40;0.40;;;;;;;8.05;62.68;100741.97;5065127;28;20048;-68
2022/09/20 04:51:16;;;;;;;0.40;0.40;;;;;;;8.02;62.72;100744.53;5064969;28;20076;-67
2022/09/20 04:54:01;;;;;;;0.50;0.50;;;;;;;7.97;63.07;100742.78;5064800;28;20052;-68
2022/09/20 04:56:57;;;;;;;0.40;0.40;;;;;;;7.97;63.19;100753.13;5064628;28;20036;-68
2022/09/20 04:59:54;;;;;;;0.40;0.40;;;;;;;7.94;62.97;100751.38;5064521;28;20029;-69
2022/09/20 05:02:22;;;;;;;0.40;0.40;;;;;;;7.98;63.51;100757.44;5064987;28;20055;-69
2022/09/20 05:05:16;;;;;;;0.40;0.40;;;;;;;8.18;63.40;100761.03;5064953;28;20032;-69
2022/09/20 05:07:42;;;;;;;0.40;0.40;;;;;;;8.41;63.58;100764.63;5063431;28;20115;-68
2022/09/20 05:10:27;;;;;;;0.38;0.38;;;;;;;8.46;63.85;100762.06;5064269;28;20021;-69
2022/09/20 05:13:24;;;;;;;0.40;0.40;;;;;;;8.49;63.39;100769.84;5064564;28;20104;-68
2022/09/20 05:16:04;;;;;;;0.40;0.40;;;;;;;8.57;63.49;100768.22;5064764;28;20021;-68
2022/09/20 05:19:01;;;;;;;0.40;0.40;;;;;;;8.79;64.08;100763.16;5067262;28;20043;-69
2022/09/20 05:21:49;;;;;;;0.50;0.50;;;;;;;9.25;64.29;100766.78;5068506;28;20025;-69
2022/09/20 05:24:37;;;;;;;0.40;0.40;;;;;;;9.71;64.54;100773.78;5068643;28;20033;-69
2022/09/20 05:27:35;;;;;;;0.30;0.30;;;;;;;9.93;63.54;100779.00;5068553;28;20028;-69
2022/09/20 05:30:33;;;;;;;0.40;0.40;;;;;;;9.88;62.87;100780.72;5068162;28;20047;-69
2022/09/20 05:33:19;;;;;;;0.40;0.40;;;;;;;10.03;63.15;100787.63;5067146;28;20037;-68
2022/09/20 05:36:01;;;;;;;0.40;0.40;;;;;;;10.33;63.28;100795.41;5066997;28;20029;-68
2022/09/20 05:38:39;;;;;;;0.50;0.50;;;;;;;10.60;62.95;100788.47;5066839;28;20072;-68
2022/09/20 05:41:23;;;;;;;0.40;0.40;;;;;;;10.89;62.28;100796.16;5066699;28;20102;-69
2022/09/20 05:44:06;;;;;;;0.40;0.40;;;;;;;11.22;62.29;100796.03;5067243;28;20871;-69
2022/09/20 05:46:58;;;;;;;0.40;0.40;;;;;;;11.55;61.86;100788.03;5067143;28;20017;-69
2022/09/20 05:49:57;;;;;;;0.50;0.50;;;;;;;11.78;61.33;100798.31;5067063;28;20082;-68
2022/09/20 05:52:50;;;;;;;0.40;0.40;;;;;;;12.25;61.49;100797.94;5067075;28;20096;-69
2022/09/20 05:55:53;;;;;;;0.30;0.30;;;;;;;12.65;61.15;100808.88;5067230;28;20021;-69
2022/09/20 05:58:37;;;;;;;0.30;0.30;;;;;;;13.05;60.12;100804.06;5066858;28;20044;-69
2022/09/20 06:01:09;;;;;;;0.30;0.30;;;;;;;13.29;59.61;100805.47;5066735;28;20025;-70
2022/09/20 06:03:35;;;;;;;0.50;0.50;;;;;;;13.37;59.50;100803.63;5066931;28;20025;-69
2022/09/20 06:06:10;;;;;;;0.40;0.40;;;;;;;13.55;58.68;100808.63;5066857;28;20040;-69
2022/09/20 06:08:50;;;;;;;0.40;0.40;;;;;;;13.69;58.31;100817.13;5066805;28;20025;-69
2022/09/20 06:11:57;;;;;;;0.35;0.35;;;;;;;13.85;57.83;100809.94;5066584;28;20017;-70
2022/09/20 06:15:00;;;;;;;0.40;0.40;;;;;;;13.85;56.20;100812.53;5066584;28;20021;-68
2022/09/20 06:17:39;;;;;;;0.30;0.30;;;;;;;13.81;56.73;100810.88;5066586;28;20025;-69
2022/09/20 06:20:27;;;;;;;0.30;0.30;;;;;;;13.94;55.98;100827.22;5066347;28;20029;-70
2022/09/20 06:22:55;;;;;;;0.30;0.30;;;;;;;14.10;55.46;100821.75;5064950;28;20036;-70
2022/09/20 06:25:29;;;;;;;0.30;0.30;;;;;;;14.46;55.53;100831.56;5066354;28;20082;-70
2022/09/20 06:28:00;;;;;;;0.30;0.30;;;;;;;14.69;54.68;100822.44;5066278;28;20021;-70
2022/09/20 06:30:36;;;;;;;0.30;0.30;;;;;;;14.91;53.49;100835.13;5065182;28;20025;-68
2022/09/20 06:33:16;;;;;;;0.30;0.30;;;;;;;15.20;54.46;100842.41;5066297;28;20021;-69
2022/09/20 06:35:55;;;;;;;0.30;0.30;;;;;;;15.68;53.74;100843.13;5066472;28;20025;-68
2022/09/20 06:41:28;;;;;;;0.30;0.30;;;;;;;15.56;51.59;100848.63;5065900;28;20051;-69
2022/09/20 06:43:58;;;;;;;0.30;0.30;;;;;;;15.58;51.31;100847.69;5065847;28;20021;-69
2022/09/20 06:46:29;;;;;;;0.25;0.25;;;;;;;15.68;52.26;100853.59;5066130;28;20021;-69
2022/09/20 06:48:56;;;;;;;0.30;0.30;;;;;;;15.93;50.86;100852.13;5065858;28;20029;-69
2022/09/20 06:51:23;;;;;;;0.30;0.30;;;;;;;16.23;51.21;100860.16;5065963;28;20081;-69
2022/09/20 06:53:49;;;;;;;0.30;0.30;;;;;;;16.38;50.40;100858.06;5065842;28;20025;-69
2022/09/20 06:56:21;;;;;;;0.30;0.30;;;;;;;16.80;50.09;100867.47;5065730;28;20024;-69
2022/09/20 06:58:46;;;;;;;0.30;0.30;;;;;;;16.96;49.88;100870.53;5065572;28;20116;-64
2022/09/20 07:01:12;;;;;;;0.30;0.30;;;;;;;17.17;49.53;100869.09;5065868;28;20456;-64
2022/09/20 07:03:38;;;;;;;0.30;0.30;;;;;;;17.53;49.32;100886.44;5065805;28;20453;-65
2022/09/20 07:06:05;;;;;;;0.30;0.30;;;;;;;17.70;47.95;100878.03;5065612;28;20036;-65
2022/09/20 07:08:30;;;;;;;0.30;0.30;;;;;;;17.92;48.35;100879.13;5065808;28;20071;-65
2022/09/20 07:10:55;;;;;;;0.30;0.30;;;;;;;18.44;48.19;100879.22;5065329;28;20021;-65
2022/09/20 07:13:21;;;;;;;0.20;0.20;;;;;;;18.54;47.58;100881.53;5065610;28;20056;-65
2022/09/20 07:15:46;;;;;;;0.20;0.20;;;;;;;18.97;47.78;100884.41;5065507;28;20059;-64
2022/09/20 07:18:12;;;;;;;0.20;0.20;;;;;;;19.31;45.31;100891.09;5065403;28;20079;-64
2022/09/20 07:20:37;;;;;;;0.30;0.30;;;;;;;19.24;45.71;100883.47;5065356;28;20139;-64
2022/09/20 07:23:02;;;;;;;0.40;0.40;;;;;;;19.22;45.09;100891.44;5065351;28;20021;-64
2022/09/20 07:25:30;;;;;;;0.30;0.30;;;;;;;19.22;44.95;100891.44;5065201;28;20541;-65
2022/09/20 07:27:56;;;;;;;0.20;0.20;;;;;;;19.38;43.48;100890.84;5064229;28;20048;-65
2022/09/20 07:30:22;;;;;;;0.20;0.20;;;;;;;19.37;43.22;100889.16;5064064;28;20021;-65
2022/09/20 07:32:49;;;;;;;0.20;0.20;;;;;;;19.53;44.00;100890.28;5064908;28;20045;-65
2022/09/20 07:35:15;;;;;;;0.30;0.30;;;;;;;19.36;41.77;100904.06;5065293;28;20033;-64
2022/09/20 07:37:40;;;;;;;0.20;0.20;;;;;;;18.74;42.36;100893.97;5064793;28;20452;-64
2022/09/20 07:40:08;;;;;;;0.30;0.30;;;;;;;18.56;42.79;100893.69;5064399;28;20021;-64
2022/09/20 07:42:33;;;;;;;0.20;0.20;;;;;;;18.47;43.39;100894.03;5064881;28;20025;-64
2022/09/20 07:45:01;;;;;;;0.20;0.20;;;;;;;18.35;43.00;100903.19;5064773;28;20025;-64
2022/09/20 07:47:30;;;;;;;0.43;0.43;;;;;;;18.24;43.65;100908.81;5064993;28;20028;-65
2022/09/20 07:49:57;;;;;;;0.30;0.30;;;;;;;18.25;43.87;100907.03;5064922;28;20449;-64
2022/09/20 07:52:22;;;;;;;0.20;0.20;;;;;;;18.31;44.29;100899.78;5064828;28;20051;-64
2022/09/20 07:54:48;;;;;;;0.30;0.30;;;;;;;18.56;44.53;100903.38;5063449;28;20055;-63
2022/09/20 07:57:14;;;;;;;0.20;0.20;;;;;;;18.58;44.25;100910.28;5064878;28;20124;-64
2022/09/20 07:59:40;;;;;;;0.20;0.20;;;;;;;18.62;43.18;100910.19;5064578;28;20031;-64
2022/09/20 08:02:05;;;;;;;0.20;0.20;;;;;;;18.52;42.94;100910.50;5064523;28;20044;-64
2022/09/20 08:04:31;;;;;;;0.20;0.20;;;;;;;18.43;43.23;100910.81;5064623;28;20079;-64
2022/09/20 08:06:57;;;;;;;0.30;0.30;;;;;;;18.48;43.31;100911.53;5064536;28;20021;-64
2022/09/20 08:09:23;;;;;;;0.20;0.20;;;;;;;18.54;43.35;100913.09;5064702;28;20031;-65
2022/09/20 08:11:49;;;;;;;0.30;0.30;;;;;;;18.75;42.85;100919.38;5064471;28;20029;-64
2022/09/20 08:14:16;;;;;;;0.20;0.20;;;;;;;18.58;42.32;100923.44;5064437;28;20107;-64
2022/09/20 08:16:44;;;;;;;0.30;0.30;;;;;;;18.27;41.61;100924.47;5064474;28;20110;-64
2022/09/20 08:19:15;;;;;;;0.20;0.20;;;;;;;17.57;42.26;100935.31;5064485;28;20024;-64
2022/09/20 08:21:41;;;;;;;0.30;0.30;;;;;;;17.12;43.05;100927.84;5064525;28;20028;-64
2022/09/20 08:24:06;;;;;;;0.20;0.20;;;;;;;16.82;43.72;100926.81;5063021;28;20504;-64
2022/09/20 08:26:33;;;;;;;0.20;0.20;;;;;;;16.66;44.33;100931.59;5063088;28;20047;-64
2022/09/20 08:29:00;;;;;;;0.20;0.20;;;;;;;16.64;44.24;100936.06;5064070;28;20025;-64
2022/09/20 08:31:31;;;;;;;0.30;0.30;;;;;;;16.69;44.29;100935.94;5064423;28;20025;-65
2022/09/20 08:33:56;;;;;;;0.30;0.30;;;;;;;16.63;43.92;100941.34;5064302;28;20029;-65
2022/09/20 08:36:24;;;;;;;0.20;0.20;;;;;;;16.54;44.12;100943.28;5064357;28;20047;-64
2022/09/20 08:38:51;;;;;;;0.30;0.30;;;;;;;16.60;44.33;100943.13;5064337;28;20481;-64
2022/09/20 08:41:22;;;;;;;0.20;0.20;;;;;;;16.67;44.06;100937.72;5064085;28;20021;-64
2022/09/20 08:44:01;;;;;;;0.30;0.30;;;;;;;16.68;44.39;100947.28;5064100;28;20021;-64
2022/09/20 08:46:32;;;;;;;0.30;0.30;;;;;;;16.74;44.26;100941.94;5064237;28;20036;-65
2022/09/20 08:48:58;;;;;;;0.40;0.40;;;;;;;16.92;43.98;100942.31;5062890;28;20021;-64
2022/09/20 08:51:29;;;;;;;0.30;0.30;;;;;;;17.24;44.10;100942.41;5064232;28;20076;-65
2022/09/20 08:53:56;;;;;;;0.30;0.30;;;;;;;17.57;43.56;100940.56;5067495;28;20381;-64
2022/09/20 08:56:25;;;;;;;0.30;0.30;;;;;;;18.08;43.53;100937.31;5068146;28;20135;-64
2022/09/20 08:58:52;;;;;;;0.20;0.20;;;;;;;19.02;42.59;100948.28;5067764;28;20028;-64
2022/09/20 09:01:21;;;;;;;0.28;0.28;;;;;;;19.57;41.53;100943.69;5066660;28;20028;-64
2022/09/20 09:03:49;;;;;;;0.20;0.20;;;;;;;20.12;40.51;100945.13;5068117;28;20021;-65
2022/09/20 09:06:19;;;;;;;0.20;0.20;;;;;;;20.14;39.04;100939.78;5067874;28;20036;-64
2022/09/20 09:08:46;;;;;;;0.30;0.30;;;;;;;20.10;39.56;100940.81;5067952;28;20113;-64
2022/09/20 09:11:15;;;;;;;0.35;0.35;;;;;;;20.25;39.51;100942.84;5067847;28;20049;-64
2022/09/20 09:14:03;;;;;;;0.20;0.20;;;;;;;20.34;38.79;100946.88;5067613;28;20159;-64
2022/09/20 09:16:33;;;;;;;0.20;0.20;;;;;;;20.77;39.38;100946.00;5067881;28;20033;-63
2022/09/20 09:19:26;;;;;;;0.20;0.20;;;;;;;21.39;37.59;100953.03;5067573;28;20603;-64
2022/09/20 09:21:59;;;;;;;0.25;0.25;;;;;;;21.65;37.24;100953.59;5068058;28;20385;-64
2022/09/20 09:24:25;;;;;;;0.20;0.20;;;;;;;22.13;36.86;100958.44;5067524;28;20024;-64
2022/09/20 09:27:05;;;;;;;0.20;0.20;;;;;;;22.41;35.95;100962.41;5067730;28;20028;-63
2022/09/20 09:29:30;;;;;;;0.20;0.20;;;;;;;22.51;35.29;100955.69;5067413;28;20040;-64
2022/09/20 09:32:19;;;;;;;0.20;0.20;;;;;;;22.44;34.46;100961.38;5067461;28;20309;-64
2022/09/20 09:34:44;;;;;;;0.20;0.20;;;;;;;22.15;35.53;100968.03;5067522;28;20025;-63
2022/09/20 09:37:24;;;;;;;0.20;0.20;;;;;;;22.37;35.64;100956.38;5067076;28;20053;-64
2022/09/20 09:40:10;;;;;;;0.20;0.20;;;;;;;22.66;34.95;100961.19;5067395;28;20025;-64
2022/09/20 09:42:36;;;;;;;0.20;0.20;;;;;;;22.70;34.39;100961.88;5066786;28;20083;-64
2022/09/20 09:45:24;;;;;;;0.20;0.20;;;;;;;22.52;33.75;100960.03;5067228;28;20447;-64
2022/09/20 09:47:50;;;;;;;0.20;0.20;;;;;;;22.60;34.53;100956.19;5067280;28;20025;-64
2022/09/20 09:50:24;;;;;;;0.20;0.20;;;;;;;22.59;33.71;100965.06;5067036;28;20024;-64
2022/09/20 09:53:25;;;;;;;0.22;0.22;;;;;;;22.67;33.77;100956.75;5067140;28;20108;-64
2022/09/20 09:55:56;;;;;;;0.20;0.20;;;;;;;22.52;32.96;100961.84;5067237;28;20021;-64
2022/09/20 09:58:31;;;;;;;0.20;0.20;;;;;;;22.48;34.03;100969.06;5067263;28;20033;-64
2022/09/20 10:01:01;;;;;;;0.20;0.20;;;;;;;23.09;33.85;100952.81;5066643;28;20045;-64
2022/09/20 10:03:35;;;;;;;0.47;0.47;;;;;;;23.00;32.67;100956.78;5066570;28;20088;-64
2022/09/20 10:06:10;;;;;;;0.20;0.20;;;;;;;22.39;33.06;100964.25;5066939;28;20085;-64
2022/09/20 10:08:43;;;;;;;0.20;0.20;;;;;;;22.06;34.19;100975.53;5066981;28;20027;-65
2022/09/20 10:11:36;;;;;;;0.20;0.20;;;;;;;22.39;33.91;100974.81;5066727;28;20025;-63
2022/09/20 10:14:36;;;;;;;0.20;0.20;;;;;;;22.43;33.81;100971.09;5066445;28;20032;-65
2022/09/20 10:17:37;;;;;;;0.20;0.20;;;;;;;22.44;34.05;100971.94;5066666;28;20021;-65
2022/09/20 10:20:54;;;;;;;0.20;0.20;;;;;;;22.56;33.81;100973.97;5066287;28;20032;-65
2022/09/20 10:23:27;;;;;;;0.20;0.20;;;;;;;22.33;33.75;100970.72;5032749;28;20041;-65
2022/09/20 10:26:21;;;;;;;0.10;0.10;;;;;;;22.63;33.98;100983.38;5066383;28;20032;-65
2022/09/20 10:29:07;;;;;;;0.20;0.20;;;;;;;22.97;33.41;100972.81;5004245;28;20058;-64
2022/09/20 10:32:17;;;;;;;0.20;0.20;;;;;;;22.80;32.63;100989.59;5004377;28;20026;-64
2022/09/20 10:35:11;;;;;;;0.20;0.20;;;;;;;22.75;33.90;100984.53;4965462;28;20038;-64
2022/09/20 10:37:45;;;;;;;0.20;0.20;;;;;;;23.01;33.41;100989.41;4965416;29;20051;-64
2022/09/20 10:40:13;;;;;;;0.20;0.20;;;;;;;22.97;33.00;100986.06;4965548;29;20082;-64
2022/09/20 10:45:46;;;;;;;0.10;0.10;;;;;;;23.47;33.05;100999.41;4965315;29;20130;-64
2022/09/20 10:48:29;;;;;;;0.20;0.20;;;;;;;23.13;32.40;100993.22;4965381;29;20031;-65
2022/09/20 10:51:20;;;;;;;0.20;0.20;;;;;;;22.26;33.13;100999.25;4965427;29;20027;-64
2022/09/20 10:54:23;;;;;;;0.20;0.20;;;;;;;22.12;33.24;101004.34;4965392;29;20098;-64
2022/09/20 10:56:58;;;;;;;0.20;0.20;;;;;;;21.94;33.25;100996.34;4943137;29;20046;-64
2022/09/20 10:59:42;;;;;;;0.20;0.20;;;;;;;22.05;34.14;100998.47;4964924;29;20578;-64
2022/09/20 11:02:32;;;;;;;0.20;0.20;;;;;;;22.57;33.13;101004.81;4965097;28;20047;-65
2022/09/20 11:05:13;;;;;;;0.68;0.68;;;;;;;23.06;32.18;101013.88;4987935;28;20101;-64
2022/09/20 11:07:51;;;;;;;0.50;0.50;;;;;;;22.47;32.59;101019.41;5064393;28;20465;-64
2022/09/20 11:10:35;;;;;;;0.20;0.20;;;;;;;22.52;31.95;101018.25;5065734;28;20056;-65
2022/09/20 11:13:19;;;;;;;0.20;0.20;;;;;;;22.88;32.51;101026.25;5065489;28;20032;-65
2022/09/20 11:15:47;;;;;;;0.20;0.20;;;;;;;22.98;31.71;101022.22;5064755;28;20032;-64
2022/09/20 11:18:31;;;;;;;0.20;0.20;;;;;;;22.77;31.52;101017.06;5065286;28;20024;-65
2022/09/20 11:21:06;;;;;;;0.20;0.20;;;;;;;22.58;32.53;101022.41;5065544;28;20025;-64
2022/09/20 11:23:50;;;;;;;0.22;0.22;;;;;;;23.08;31.93;101021.72;5065531;28;20029;-65
2022/09/20 11:26:34;;;;;;;0.40;0.40;;;;;;;22.89;31.28;101015.56;5065317;28;20013;-64
2022/09/20 11:29:26;;;;;;;0.20;0.20;;;;;;;22.64;31.69;101029.19;5063958;28;20028;-65
2022/09/20 11:32:01;;;;;;;0.20;0.20;;;;;;;22.50;32.17;101030.72;5063422;28;20051;-65
2022/09/20 11:34:34;;;;;;;0.20;0.20;;;;;;;21.27;33.00;101023.97;5065394;28;20028;-64
2022/09/20 11:37:02;;;;;;;0.20;0.20;;;;;;;19.88;34.72;101026.81;5064848;28;20048;-64
2022/09/20 11:39:39;;;;;;;0.20;0.20;;;;;;;18.74;36.43;101027.28;5065085;28;20021;-65
2022/09/20 11:42:11;;;;;;;0.20;0.20;;;;;;;17.77;38.07;101028.38;5064855;28;20066;-63
2022/09/20 11:44:39;;;;;;;0.30;0.30;;;;;;;17.05;38.96;101026.78;5065053;28;20022;-64
2022/09/20 11:47:17;;;;;;;0.20;0.20;;;;;;;16.53;39.96;101024.56;5064996;28;20033;-64
2022/09/20 11:49:45;;;;;;;0.28;0.28;;;;;;;16.19;41.09;101036.66;5064866;28;20025;-64
2022/09/20 11:52:22;;;;;;;0.20;0.20;;;;;;;15.89;41.15;101039.00;5064995;28;20033;-64
2022/09/20 11:55:16;;;;;;;0.30;0.30;;;;;;;15.73;41.51;101039.31;5064899;28;20025;-64
2022/09/20 11:57:41;;;;;;;1.55;1.20;;;;;;;15.65;42.10;101020.28;5064755;28;20028;-64
2022/09/20 12:00:09;;;;;;;0.30;0.30;;;;;;;15.53;42.79;101037.09;5064514;28;20341;-64
2022/09/20 12:02:43;;;;;;;0.30;0.30;;;;;;;15.36;42.97;101036.53;5064778;28;20032;-64
2022/09/20 12:05:31;;;;;;;0.30;0.30;;;;;;;15.24;43.54;101034.09;5064877;28;20032;-64
2022/09/20 12:07:58;;;;;;;0.30;0.30;;;;;;;15.06;44.10;101033.56;5064586;28;20021;-64
2022/09/20 12:10:29;;;;;;;0.30;0.30;;;;;;;15.03;44.09;101032.75;5064624;28;20021;-64
2022/09/20 12:13:00;;;;;;;0.30;0.30;;;;;;;15.03;44.16;101040.59;5064662;28;20031;-64
2022/09/20 12:15:30;;;;;;;0.40;0.40;;;;;;;15.03;44.33;101033.59;5064349;28;20057;-64
2022/09/20 12:17:56;;;;;;;0.30;0.30;;;;;;;15.09;44.37;101043.09;5064578;28;20036;-64
2022/09/20 12:20:33;;;;;;;0.30;0.30;;;;;;;15.20;44.31;101041.16;5064553;28;20036;-65
2022/09/20 12:23:37;;;;;;;0.30;0.30;;;;;;;15.29;44.36;101042.75;5064315;28;20465;-65
2022/09/20 12:26:12;;;;;;;0.28;0.28;;;;;;;15.40;44.21;101052.16;5032745;28;20063;-64
2022/09/20 12:28:40;;;;;;;0.30;0.30;;;;;;;15.58;44.25;101045.72;5064456;28;20039;-64
2022/09/20 12:31:20;;;;;;;0.30;0.30;;;;;;;15.58;43.83;101057.06;5064284;28;20017;-63